Time;durP1;ratioP1;P1;durP2;ratioP2;P2;SDS_P1;SDS_P2;PMS_P1;PMS_P2;Temp;Humidity;BMP_temperature;BMP_pressure;BME280_temperature;BME280_humidity;BME280_pressure;Samples;Min_cycle;Max_cycle;Signal;HPM_P1;HPM_P2
2023/08/26 00:00:18;;;;;;;;;;;17.60;99.90;;;;;;7325834;19;109533;-82
2023/08/26 00:02:45;;;;;;;;;;;17.50;99.90;;;;;;7330734;19;110059;-82
2023/08/26 00:05:13;;;;;;;;;;;17.50;99.90;;;;;;7323057;19;109590;-82
2023/08/26 00:07:40;;;;;;;;;;;17.50;99.90;;;;;;7328217;19;109584;-82
2023/08/26 00:10:08;;;;;;;;;;;17.50;99.90;;;;;;7324801;19;110232;-82
2023/08/26 00:12:36;;;;;;;;;;;17.40;99.90;;;;;;7327378;19;110076;-81
2023/08/26 00:15:03;;;;;;;;;;;17.40;99.90;;;;;;7330967;19;110551;-82
2023/08/26 00:17:32;;;;;;;;;;;17.30;99.90;;;;;;7324546;19;111108;-82
2023/08/26 00:19:59;;;;;;;;;;;17.30;99.90;;;;;;7330274;19;109412;-82
2023/08/26 00:22:26;;;;;;;;;;;17.30;99.90;;;;;;7322184;19;110625;-82
2023/08/26 00:24:53;;;;;;;;;;;17.30;99.90;;;;;;7327338;19;108832;-82
2023/08/26 00:27:23;;;;;;;;;;;17.20;99.90;;;;;;7323747;19;109112;-82
2023/08/26 00:29:50;;;;;;;;;;;17.20;99.90;;;;;;7326915;19;110631;-83
2023/08/26 00:32:17;;;;;;;;;;;17.10;99.90;;;;;;7324119;19;110582;-82
2023/08/26 00:34:44;;;;;;;;;;;17.10;99.90;;;;;;7325362;19;110052;-83
2023/08/26 00:37:12;;;;;;;;;;;17.10;99.90;;;;;;7333720;19;110066;-63
2023/08/26 00:39:39;;;;;;;;;;;17.10;99.90;;;;;;7331465;19;109257;-64
2023/08/26 00:42:06;;;;;;;;;;;17.00;99.90;;;;;;7344460;19;109738;-64
2023/08/26 00:44:33;;;;;;;;;;;17.00;99.90;;;;;;7334953;19;108947;-64
2023/08/26 00:47:01;;;;;;;;;;;17.00;99.90;;;;;;7337360;19;110214;-64
2023/08/26 00:49:28;;;;;;;;;;;16.90;99.90;;;;;;7335453;19;111206;-64
2023/08/26 00:51:56;;;;;;;;;;;16.90;99.90;;;;;;7337470;19;108881;-64
2023/08/26 00:54:23;;;;;;;;;;;16.90;99.90;;;;;;7332521;19;109088;-63
2023/08/26 00:56:50;;;;;;;;;;;16.90;99.90;;;;;;7337016;19;109232;-64
2023/08/26 00:59:17;;;;;;;;;;;16.80;99.90;;;;;;7336219;19;108569;-64
2023/08/26 01:01:45;;;;;;;;;;;16.80;99.90;;;;;;7342949;19;108901;-64
2023/08/26 01:04:13;;;;;;;;;;;16.80;99.90;;;;;;7335314;19;109504;-64
2023/08/26 01:06:40;;;;;;;;;;;16.70;99.90;;;;;;7336722;19;114165;-64
2023/08/26 01:09:07;;;;;;;;;;;16.70;99.90;;;;;;7335130;19;109101;-64
2023/08/26 01:11:41;;;;;;;;;;;16.70;99.90;;;;;;7335213;19;110775;-64
2023/08/26 01:14:19;;;;;;;;;;;16.70;99.90;;;;;;7337970;19;109066;-64
2023/08/26 01:16:47;;;;;;;;;;;16.60;99.90;;;;;;7336524;19;110000;-64
2023/08/26 01:19:26;;;;;;;;;;;16.60;99.90;;;;;;7333934;19;111217;-64
2023/08/26 01:21:56;;;;;;;;;;;16.60;99.90;;;;;;7335751;19;108645;-64
2023/08/26 01:24:24;;;;;;;;;;;16.50;99.90;;;;;;7338262;19;110110;-64
2023/08/26 01:26:52;;;;;;;;;;;16.50;99.90;;;;;;7334439;19;108662;-64
2023/08/26 01:29:19;;;;;;;;;;;16.50;99.90;;;;;;7335308;19;109104;-64
2023/08/26 01:31:53;;;;;;;;;;;16.40;99.90;;;;;;7332703;19;108659;-66
2023/08/26 01:34:23;;;;;;;;;;;16.40;99.90;;;;;;7336372;19;109179;-64
2023/08/26 01:36:50;;;;;;;;;;;16.30;99.90;;;;;;7336076;19;109076;-64
2023/08/26 01:39:18;;;;;;;;;;;16.30;99.90;;;;;;7332488;19;110705;-64
2023/08/26 01:41:49;;;;;;;;;;;16.20;99.90;;;;;;7337150;19;109038;-64
2023/08/26 01:44:20;;;;;;;;;;;16.20;99.90;;;;;;7334337;19;109446;-64
2023/08/26 01:46:47;;;;;;;;;;;16.20;99.90;;;;;;7338907;19;109217;-64
2023/08/26 01:49:15;;;;;;;;;;;16.10;99.90;;;;;;7329453;19;110912;-64
2023/08/26 01:51:44;;;;;;;;;;;16.10;99.90;;;;;;7334406;19;108687;-64
2023/08/26 01:54:15;;;;;;;;;;;16.10;99.90;;;;;;7332813;19;119470;-64
2023/08/26 01:56:42;;;;;;;;;;;16.00;99.90;;;;;;7336582;19;109245;-64
2023/08/26 01:59:10;;;;;;;;;;;16.00;99.90;;;;;;7334476;19;108748;-64
2023/08/26 02:01:37;;;;;;;;;;;16.00;99.90;;;;;;7332918;19;109421;-64
2023/08/26 02:04:04;;;;;;;;;;;16.00;99.90;;;;;;7332516;19;109765;-64
2023/08/26 02:06:31;;;;;;;;;;;15.90;99.90;;;;;;7333347;19;108398;-64
2023/08/26 02:08:58;;;;;;;;;;;15.90;99.90;;;;;;7338427;19;108576;-64
2023/08/26 02:11:25;;;;;;;;;;;15.90;99.90;;;;;;7329724;19;108913;-63
2023/08/26 02:13:52;;;;;;;;;;;15.90;99.90;;;;;;7334968;19;108632;-64
2023/08/26 02:16:19;;;;;;;;;;;15.90;99.90;;;;;;7334646;19;110064;-64
2023/08/26 02:18:47;;;;;;;;;;;15.80;99.90;;;;;;7332641;19;109279;-63
2023/08/26 02:21:14;;;;;;;;;;;15.80;99.90;;;;;;7333553;19;109418;-64
2023/08/26 02:23:41;;;;;;;;;;;15.70;99.90;;;;;;7334321;19;109769;-65
2023/08/26 02:26:08;;;;;;;;;;;15.80;99.90;;;;;;7333024;19;108481;-64
2023/08/26 02:28:35;;;;;;;;;;;15.70;99.90;;;;;;7331389;19;109134;-64
2023/08/26 02:31:03;;;;;;;;;;;15.70;99.90;;;;;;7334934;19;109211;-64
2023/08/26 02:33:30;;;;;;;;;;;15.70;99.90;;;;;;7335597;19;114423;-64
2023/08/26 02:35:57;;;;;;;;;;;15.60;99.90;;;;;;7330702;19;113138;-64
2023/08/26 02:38:25;;;;;;;;;;;15.60;99.90;;;;;;7334239;19;108479;-65
2023/08/26 02:40:55;;;;;;;;;;;15.60;99.90;;;;;;7332581;19;110265;-64
2023/08/26 02:43:22;;;;;;;;;;;15.60;99.90;;;;;;7331480;19;109181;-64
2023/08/26 02:45:53;;;;;;;;;;;15.50;99.90;;;;;;7332338;19;108599;-68
2023/08/26 02:48:21;;;;;;;;;;;15.50;99.90;;;;;;7333765;19;109091;-70
2023/08/26 02:50:54;;;;;;;;;;;15.50;99.90;;;;;;7331362;19;109235;-67
2023/08/26 02:53:21;;;;;;;;;;;15.40;99.90;;;;;;7338706;19;108916;-68
2023/08/26 02:55:48;;;;;;;;;;;15.40;99.90;;;;;;7331497;19;110401;-67
2023/08/26 02:58:15;;;;;;;;;;;15.30;99.90;;;;;;7332754;19;108424;-64
2023/08/26 03:00:42;;;;;;;;;;;15.30;99.90;;;;;;7328073;19;109120;-66
2023/08/26 03:03:09;;;;;;;;;;;15.30;99.90;;;;;;7330803;19;110060;-65
2023/08/26 03:05:36;;;;;;;;;;;15.30;99.90;;;;;;7332674;19;109282;-66
2023/08/26 03:08:04;;;;;;;;;;;15.30;99.90;;;;;;7328717;19;109166;-64
2023/08/26 03:10:32;;;;;;;;;;;15.30;99.90;;;;;;7331646;19;109265;-64
2023/08/26 03:12:59;;;;;;;;;;;15.30;99.90;;;;;;7336748;19;108373;-64
2023/08/26 03:15:27;;;;;;;;;;;15.20;99.90;;;;;;7329140;19;109590;-64
2023/08/26 03:17:55;;;;;;;;;;;15.20;99.90;;;;;;7333167;19;108847;-63
2023/08/26 03:20:23;;;;;;;;;;;15.20;99.90;;;;;;7333277;19;108471;-64
2023/08/26 03:22:50;;;;;;;;;;;15.20;99.90;;;;;;7329294;19;109099;-64
2023/08/26 03:25:18;;;;;;;;;;;15.20;99.90;;;;;;7333750;19;109243;-63
2023/08/26 03:27:45;;;;;;;;;;;15.20;99.90;;;;;;7331178;19;110340;-64
2023/08/26 03:30:12;;;;;;;;;;;15.20;99.90;;;;;;7331090;19;109913;-64
2023/08/26 03:32:39;;;;;;;;;;;15.20;99.90;;;;;;7329430;19;110322;-64
2023/08/26 03:35:07;;;;;;;;;;;15.20;99.90;;;;;;7337825;19;108564;-64
2023/08/26 03:37:34;;;;;;;;;;;15.20;99.90;;;;;;7330046;19;109331;-63
2023/08/26 03:40:06;;;;;;;;;;;15.20;99.90;;;;;;7340505;19;108990;-64
2023/08/26 03:42:33;;;;;;;;;;;15.20;99.90;;;;;;7337209;19;110225;-64
2023/08/26 03:45:00;;;;;;;;;;;15.20;99.90;;;;;;7342348;19;108550;-64
2023/08/26 03:47:27;;;;;;;;;;;15.20;99.90;;;;;;7337550;19;109110;-64
2023/08/26 03:49:54;;;;;;;;;;;15.20;99.90;;;;;;7339607;19;109145;-62
2023/08/26 03:52:21;;;;;;;;;;;15.20;99.90;;;;;;7338341;19;110592;-64
2023/08/26 03:54:48;;;;;;;;;;;15.20;99.90;;;;;;7339936;19;110021;-64
2023/08/26 03:57:16;;;;;;;;;;;15.20;99.90;;;;;;7342979;19;109245;-64
2023/08/26 03:59:44;;;;;;;;;;;15.10;99.90;;;;;;7338919;19;110229;-64
2023/08/26 04:02:11;;;;;;;;;;;15.10;99.90;;;;;;7339841;19;110239;-64
2023/08/26 04:04:38;;;;;;;;;;;15.10;99.90;;;;;;7338202;19;110085;-64
2023/08/26 04:07:05;;;;;;;;;;;15.10;99.90;;;;;;7335951;19;109735;-64
2023/08/26 04:09:32;;;;;;;;;;;15.00;99.90;;;;;;7339516;19;109385;-64
2023/08/26 04:11:59;;;;;;;;;;;15.00;99.90;;;;;;7335766;19;108833;-64
2023/08/26 04:14:26;;;;;;;;;;;15.00;99.90;;;;;;7337207;19;110181;-64
2023/08/26 04:16:53;;;;;;;;;;;15.00;99.90;;;;;;7333692;19;110636;-64
2023/08/26 04:19:20;;;;;;;;;;;14.90;99.90;;;;;;7338884;19;110239;-64
2023/08/26 04:21:47;;;;;;;;;;;14.90;99.90;;;;;;7334992;19;110868;-63
2023/08/26 04:24:14;;;;;;;;;;;14.90;99.90;;;;;;7335149;19;109142;-64
2023/08/26 04:26:42;;;;;;;;;;;14.80;99.90;;;;;;7336441;19;110225;-64
2023/08/26 04:29:09;;;;;;;;;;;14.70;99.90;;;;;;7334573;19;109570;-64
2023/08/26 04:31:36;;;;;;;;;;;14.80;99.90;;;;;;7332567;19;108607;-64
2023/08/26 04:34:03;;;;;;;;;;;14.70;99.90;;;;;;7333362;19;109195;-64
2023/08/26 04:36:30;;;;;;;;;;;14.70;99.90;;;;;;7334601;19;109756;-64
2023/08/26 04:39:10;;;;;;;;;;;14.60;99.90;;;;;;7335256;19;108863;-64
2023/08/26 04:41:39;;;;;;;;;;;14.60;99.90;;;;;;7341294;19;108735;-65
2023/08/26 04:44:07;;;;;;;;;;;14.60;99.90;;;;;;7334323;19;110088;-64
2023/08/26 04:46:34;;;;;;;;;;;14.60;99.90;;;;;;7337265;19;109205;-64
2023/08/26 04:49:02;;;;;;;;;;;14.60;99.90;;;;;;7335193;19;109827;-65
2023/08/26 04:51:29;;;;;;;;;;;14.50;99.90;;;;;;7334178;19;108861;-64
2023/08/26 04:53:56;;;;;;;;;;;14.50;99.90;;;;;;7330267;19;109551;-64
2023/08/26 04:56:24;;;;;;;;;;;14.50;99.90;;;;;;7335834;19;112425;-65
2023/08/26 04:58:51;;;;;;;;;;;14.50;99.90;;;;;;7335373;19;109245;-65
2023/08/26 05:01:18;;;;;;;;;;;14.50;99.90;;;;;;7340973;19;110833;-64
2023/08/26 05:03:45;;;;;;;;;;;14.50;99.90;;;;;;7332890;19;109884;-68
2023/08/26 05:06:13;;;;;;;;;;;14.50;99.90;;;;;;7335777;19;109208;-64
2023/08/26 05:08:40;;;;;;;;;;;14.50;99.90;;;;;;7329968;19;111982;-65
2023/08/26 05:11:07;;;;;;;;;;;14.50;99.90;;;;;;7335596;19;108499;-64
2023/08/26 05:13:34;;;;;;;;;;;14.50;99.90;;;;;;7335304;19;109860;-64
2023/08/26 05:16:02;;;;;;;;;;;14.50;99.90;;;;;;7336483;19;110451;-65
2023/08/26 05:18:29;;;;;;;;;;;14.60;99.90;;;;;;7334021;19;108739;-65
2023/08/26 05:20:56;;;;;;;;;;;14.60;99.90;;;;;;7334841;19;108584;-65
2023/08/26 05:23:23;;;;;;;;;;;14.60;99.90;;;;;;7339664;19;110940;-69
2023/08/26 05:25:50;;;;;;;;;;;14.60;99.90;;;;;;7331319;19;110549;-65
2023/08/26 05:28:17;;;;;;;;;;;14.70;99.90;;;;;;7332180;19;110597;-65
2023/08/26 05:30:44;;;;;;;;;;;14.70;99.90;;;;;;7335944;19;108310;-65
2023/08/26 05:33:11;;;;;;;;;;;14.70;99.90;;;;;;7335664;19;108609;-70
2023/08/26 05:35:38;;;;;;;;;;;14.80;99.90;;;;;;7333216;19;109181;-67
2023/08/26 05:38:05;;;;;;;;;;;14.80;99.90;;;;;;7331898;19;110236;-64
2023/08/26 05:40:34;;;;;;;;;;;14.80;99.90;;;;;;7336650;19;109886;-67
2023/08/26 05:43:01;;;;;;;;;;;14.90;99.90;;;;;;7335859;19;110261;-66
2023/08/26 05:45:29;;;;;;;;;;;14.90;99.90;;;;;;7339173;19;108930;-68
2023/08/26 05:47:56;;;;;;;;;;;14.90;99.90;;;;;;7336882;19;109287;-67
2023/08/26 05:50:23;;;;;;;;;;;15.00;99.90;;;;;;7332673;19;110498;-66
2023/08/26 05:52:51;;;;;;;;;;;15.10;99.90;;;;;;7334840;19;108342;-66
2023/08/26 05:55:18;;;;;;;;;;;15.20;99.90;;;;;;7332920;19;109630;-66
2023/08/26 05:57:45;;;;;;;;;;;15.20;99.90;;;;;;7336843;19;108624;-67
2023/08/26 06:00:13;;;;;;;;;;;15.30;99.90;;;;;;7330757;19;109778;-68
2023/08/26 06:02:40;;;;;;;;;;;15.40;99.90;;;;;;7335891;19;110704;-66
2023/08/26 06:05:07;;;;;;;;;;;15.40;99.90;;;;;;7333583;19;108705;-66
2023/08/26 06:07:34;;;;;;;;;;;15.40;99.90;;;;;;7337883;19;110212;-66
2023/08/26 06:10:01;;;;;;;;;;;15.50;99.90;;;;;;7331787;19;109972;-66
2023/08/26 06:12:29;;;;;;;;;;;15.60;99.90;;;;;;7330126;19;110288;-66
2023/08/26 06:14:56;;;;;;;;;;;15.70;99.90;;;;;;7334321;19;110914;-66
2023/08/26 06:17:23;;;;;;;;;;;15.70;99.90;;;;;;7334674;19;108457;-66
2023/08/26 06:19:50;;;;;;;;;;;15.80;99.90;;;;;;7330139;19;109308;-65
2023/08/26 06:22:17;;;;;;;;;;;15.80;99.90;;;;;;7332128;19;109921;-66
2023/08/26 06:24:44;;;;;;;;;;;15.90;99.90;;;;;;7335901;19;109157;-66
2023/08/26 06:27:11;;;;;;;;;;;16.00;99.90;;;;;;7330670;19;109978;-66
2023/08/26 06:29:42;;;;;;;;;;;16.10;99.90;;;;;;7339113;19;110941;-66
2023/08/26 06:32:09;;;;;;;;;;;16.20;99.90;;;;;;7328615;19;111136;-66
2023/08/26 06:34:37;;;;;;;;;;;16.30;99.90;;;;;;7332503;19;109122;-66
2023/08/26 06:37:04;;;;;;;;;;;16.40;99.90;;;;;;7329600;19;110385;-66
2023/08/26 06:39:31;;;;;;;;;;;16.40;99.90;;;;;;7333527;19;109219;-66
2023/08/26 06:41:58;;;;;;;;;;;16.50;99.90;;;;;;7331042;19;109855;-66
2023/08/26 06:44:25;;;;;;;;;;;16.60;99.90;;;;;;7333419;19;108778;-66
2023/08/26 06:46:53;;;;;;;;;;;16.60;99.90;;;;;;7330831;19;108722;-66
2023/08/26 06:49:20;;;;;;;;;;;16.70;99.90;;;;;;7332923;19;112155;-66
2023/08/26 06:51:47;;;;;;;;;;;16.80;99.90;;;;;;7330838;19;109017;-65
2023/08/26 06:54:14;;;;;;;;;;;16.80;99.90;;;;;;7332347;19;109692;-67
2023/08/26 06:56:41;;;;;;;;;;;16.90;99.90;;;;;;7334206;19;108353;-66
2023/08/26 06:59:08;;;;;;;;;;;17.00;99.90;;;;;;7332565;19;109321;-66
2023/08/26 07:01:36;;;;;;;;;;;17.00;99.90;;;;;;7329651;19;110007;-66
2023/08/26 07:04:06;;;;;;;;;;;17.10;99.90;;;;;;7332272;19;108762;-65
2023/08/26 07:06:35;;;;;;;;;;;17.20;99.90;;;;;;7329944;19;110558;-66
2023/08/26 07:09:04;;;;;;;;;;;17.20;99.90;;;;;;7330556;19;110628;-66
2023/08/26 07:11:31;;;;;;;;;;;17.30;99.90;;;;;;7336024;19;108604;-65
2023/08/26 07:13:59;;;;;;;;;;;17.40;99.90;;;;;;7333575;19;110234;-65
2023/08/26 07:16:26;;;;;;;;;;;17.40;99.90;;;;;;7333230;19;109123;-65
2023/08/26 07:18:53;;;;;;;;;;;17.50;99.90;;;;;;7337792;19;108881;-66
2023/08/26 07:21:21;;;;;;;;;;;17.60;99.90;;;;;;7334645;19;109920;-66
2023/08/26 07:23:48;;;;;;;;;;;17.70;99.90;;;;;;7338613;19;108830;-66
2023/08/26 07:26:15;;;;;;;;;;;17.80;99.90;;;;;;7336403;19;110646;-66
2023/08/26 07:28:45;;;;;;;;;;;17.90;99.90;;;;;;7335949;19;110674;-66
2023/08/26 07:31:12;;;;;;;;;;;17.90;99.90;;;;;;7337231;19;108921;-66
2023/08/26 07:33:39;;;;;;;;;;;18.00;99.90;;;;;;7343314;19;108706;-66
2023/08/26 07:36:08;;;;;;;;;;;18.10;99.90;;;;;;7339180;19;108934;-65
2023/08/26 07:38:38;;;;;;;;;;;18.20;99.90;;;;;;7337423;19;110201;-66
2023/08/26 07:41:05;;;;;;;;;;;18.30;99.90;;;;;;7339027;19;110160;-65
2023/08/26 07:43:33;;;;;;;;;;;18.40;99.90;;;;;;7337133;19;108847;-65
2023/08/26 07:46:01;;;;;;;;;;;18.40;99.90;;;;;;7338954;19;109638;-66
2023/08/26 07:48:31;;;;;;;;;;;18.50;99.90;;;;;;7337830;19;109654;-65
2023/08/26 07:51:01;;;;;;;;;;;18.60;99.90;;;;;;7333708;19;109847;-65
2023/08/26 07:53:28;;;;;;;;;;;18.60;99.90;;;;;;7337049;19;109133;-65
2023/08/26 07:55:55;;;;;;;;;;;18.70;99.90;;;;;;7340994;19;109631;-85
2023/08/26 07:58:22;;;;;;;;;;;18.80;99.90;;;;;;7331814;19;109339;-89
2023/08/26 08:00:50;;;;;;;;;;;18.90;99.90;;;;;;7339522;19;111034;-86
2023/08/26 08:03:17;;;;;;;;;;;19.00;99.90;;;;;;7336418;19;109192;-87
2023/08/26 08:05:47;;;;;;;;;;;19.00;99.90;;;;;;7334918;19;110396;-86
2023/08/26 08:08:14;;;;;;;;;;;19.10;99.90;;;;;;7340829;19;110268;-87
2023/08/26 08:10:41;;;;;;;;;;;19.20;99.90;;;;;;7326431;19;108638;-86
2023/08/26 08:13:11;;;;;;;;;;;19.20;99.90;;;;;;7332659;19;113144;-86
2023/08/26 08:15:40;;;;;;;;;;;19.30;99.90;;;;;;7325788;19;110317;-87
2023/08/26 08:18:07;;;;;;;;;;;19.40;99.90;;;;;;7340072;19;108926;-87
2023/08/26 08:20:40;;;;;;;;;;;19.60;99.90;;;;;;7333859;19;110010;-87
2023/08/26 08:23:09;;;;;;;;;;;19.60;99.90;;;;;;7334713;19;109386;-85
2023/08/26 08:25:36;;;;;;;;;;;19.70;99.90;;;;;;7329013;19;109106;-87
2023/08/26 08:28:03;;;;;;;;;;;19.80;99.90;;;;;;7328939;19;110532;-87
2023/08/26 08:30:49;;;;;;;;;;;19.90;99.90;;;;;;7332624;19;108576;-86
2023/08/26 08:33:17;;;;;;;;;;;19.90;99.90;;;;;;7330907;19;111697;-87
2023/08/26 08:35:44;;;;;;;;;;;20.00;99.90;;;;;;7337464;19;110200;-86
2023/08/26 08:38:12;;;;;;;;;;;20.10;99.90;;;;;;7341072;19;108359;-86
2023/08/26 08:40:39;;;;;;;;;;;20.20;99.90;;;;;;7334913;19;108895;-86
2023/08/26 08:43:06;;;;;;;;;;;20.30;99.90;;;;;;7339845;19;108945;-86
2023/08/26 08:45:34;;;;;;;;;;;20.20;99.90;;;;;;7339820;19;109872;-86
2023/08/26 08:48:01;;;;;;;;;;;20.10;99.90;;;;;;7332537;19;110652;-86
2023/08/26 08:50:30;;;;;;;;;;;20.20;99.90;;;;;;7330215;19;109160;-87
2023/08/26 08:52:58;;;;;;;;;;;20.20;99.90;;;;;;7334570;19;109446;-87
2023/08/26 08:55:26;;;;;;;;;;;20.30;99.90;;;;;;7329306;19;110609;-87
2023/08/26 08:57:54;;;;;;;;;;;20.30;99.90;;;;;;7333701;19;109534;-87
2023/08/26 09:03:06;;;;;;;;;;;20.50;99.90;;;;;;7349862;19;111362;-90
2023/08/26 09:05:33;;;;;;;;;;;20.50;99.90;;;;;;7348047;19;109437;-89
2023/08/26 09:08:01;;;;;;;;;;;20.70;99.90;;;;;;7345970;19;109948;-90
2023/08/26 09:10:28;;;;;;;;;;;20.70;99.90;;;;;;7344525;19;108516;-89
2023/08/26 09:12:56;;;;;;;;;;;20.90;99.90;;;;;;7344033;19;108544;-90
2023/08/26 09:15:24;;;;;;;;;;;21.00;99.90;;;;;;7343455;19;110878;-90
2023/08/26 09:17:56;;;;;;;;;;;21.00;99.90;;;;;;7343037;19;108543;-90
2023/08/26 09:20:23;;;;;;;;;;;21.00;99.90;;;;;;7346443;19;109639;-90
2023/08/26 09:23:02;;;;;;;;;;;21.10;99.90;;;;;;7346936;19;109320;-90
2023/08/26 09:25:30;;;;;;;;;;;21.10;99.90;;;;;;7341288;19;109074;-91
2023/08/26 09:27:58;;;;;;;;;;;21.20;99.90;;;;;;7340932;19;110352;-91
2023/08/26 09:30:34;;;;;;;;;;;21.30;99.90;;;;;;7340363;19;109249;-90
2023/08/26 09:33:13;;;;;;;;;;;21.40;99.90;;;;;;7328197;19;111079;-68
2023/08/26 09:35:46;;;;;;;;;;;21.40;99.90;;;;;;7333606;19;111235;-72
2023/08/26 09:38:16;;;;;;;;;;;21.40;99.90;;;;;;7326612;19;109381;-68
2023/08/26 09:40:43;;;;;;;;;;;21.40;99.90;;;;;;7338136;19;111798;-68
2023/08/26 09:43:11;;;;;;;;;;;21.50;99.90;;;;;;7334788;19;109081;-68
2023/08/26 09:45:38;;;;;;;;;;;21.50;99.90;;;;;;7340364;19;108556;-68
2023/08/26 09:48:05;;;;;;;;;;;21.60;99.90;;;;;;7336970;19;112349;-68
2023/08/26 09:50:32;;;;;;;;;;;21.70;99.90;;;;;;7333476;19;108500;-68
2023/08/26 09:53:00;;;;;;;;;;;21.70;99.90;;;;;;7332997;19;109989;-68
2023/08/26 09:55:28;;;;;;;;;;;21.70;99.90;;;;;;7336329;19;110197;-68
2023/08/26 09:57:55;;;;;;;;;;;21.70;99.90;;;;;;7332010;19;108888;-69
2023/08/26 10:00:23;;;;;;;;;;;21.70;99.90;;;;;;7334879;19;108815;-68
2023/08/26 10:02:51;;;;;;;;;;;21.80;99.90;;;;;;7332958;19;112618;-66
2023/08/26 10:05:20;;;;;;;;;;;21.80;99.90;;;;;;7333534;19;108741;-69
2023/08/26 10:07:50;;;;;;;;;;;21.80;99.90;;;;;;7342053;19;108160;-68
2023/08/26 10:10:36;;;;;;;;;;;21.90;99.90;;;;;;7333611;19;108805;-68
2023/08/26 10:13:04;;;;;;;;;;;21.90;99.90;;;;;;7334647;19;109212;-66
2023/08/26 10:15:33;;;;;;;;;;;22.10;99.90;;;;;;7334361;19;109069;-66
2023/08/26 10:18:04;;;;;;;;;;;22.20;99.90;;;;;;7331188;19;112208;-66
2023/08/26 10:20:31;;;;;;;;;;;22.20;99.90;;;;;;7334085;19;109154;-66
2023/08/26 10:22:59;;;;;;;;;;;22.20;99.90;;;;;;7333240;19;110626;-68
2023/08/26 10:25:27;;;;;;;;;;;22.20;99.90;;;;;;7335986;19;108946;-66
2023/08/26 10:27:55;;;;;;;;;;;22.20;99.90;;;;;;7335344;19;109170;-66
2023/08/26 10:30:22;;;;;;;;;;;22.20;99.90;;;;;;7339646;19;109769;-66
2023/08/26 10:32:58;;;;;;;;;;;22.20;99.90;;;;;;7333585;19;109398;-66
2023/08/26 10:35:25;;;;;;;;;;;22.20;99.90;;;;;;7330332;19;113103;-65
2023/08/26 10:38:06;;;;;;;;;;;22.20;99.90;;;;;;7335541;19;108513;-66
2023/08/26 10:40:33;;;;;;;;;;;22.20;99.90;;;;;;7330888;19;108567;-66
2023/08/26 10:43:07;;;;;;;;;;;22.10;99.90;;;;;;7332768;19;109129;-67
2023/08/26 10:45:45;;;;;;;;;;;22.10;99.90;;;;;;7334522;19;108636;-66
2023/08/26 10:48:12;;;;;;;;;;;22.20;99.90;;;;;;7337235;19;109864;-66
2023/08/26 10:50:46;;;;;;;;;;;22.20;99.90;;;;;;7340663;19;110117;-67
2023/08/26 10:53:15;;;;;;;;;;;22.20;99.90;;;;;;7347978;19;108270;-66
2023/08/26 10:55:43;;;;;;;;;;;22.30;99.90;;;;;;7342571;19;109930;-67
2023/08/26 10:58:15;;;;;;;;;;;22.20;99.90;;;;;;7340231;19;109157;-67
2023/08/26 11:00:44;;;;;;;;;;;22.20;99.90;;;;;;7339665;19;109720;-67
2023/08/26 11:03:11;;;;;;;;;;;22.10;99.90;;;;;;7341386;19;109561;-66
2023/08/26 11:05:41;;;;;;;;;;;22.10;99.90;;;;;;7337379;19;110376;-67
2023/08/26 11:08:08;;;;;;;;;;;22.20;99.90;;;;;;7337124;19;108562;-66
2023/08/26 11:10:39;;;;;;;;;;;22.40;99.90;;;;;;7338678;19;109927;-67
2023/08/26 11:13:10;;;;;;;;;;;22.50;99.90;;;;;;7339841;19;108837;-66
2023/08/26 11:15:38;;;;;;;;;;;22.70;99.90;;;;;;7343461;19;110804;-67
2023/08/26 11:18:07;;;;;;;;;;;22.80;99.90;;;;;;7341046;19;108570;-66
2023/08/26 11:20:35;;;;;;;;;;;22.80;99.90;;;;;;7340019;19;108464;-66
2023/08/26 11:23:04;;;;;;;;;;;22.90;99.90;;;;;;7338519;19;109557;-66
2023/08/26 11:25:35;;;;;;;;;;;22.90;99.90;;;;;;7339012;19;109910;-68
2023/08/26 11:28:13;;;;;;;;;;;22.90;99.90;;;;;;7344891;19;109392;-69
2023/08/26 11:30:41;;;;;;;;;;;23.00;99.90;;;;;;7337607;19;110796;-68
2023/08/26 11:33:10;;;;;;;;;;;23.20;99.90;;;;;;7343119;19;109104;-68
2023/08/26 11:35:45;;;;;;;;;;;23.30;99.90;;;;;;7339119;19;108712;-71
2023/08/26 11:38:33;;;;;;;;;;;23.50;99.90;;;;;;7333532;19;108951;-70
2023/08/26 11:41:07;;;;;;;;;;;23.50;99.90;;;;;;7339013;19;109798;-74
2023/08/26 11:43:35;;;;;;;;;;;23.60;99.90;;;;;;7335563;19;112058;-74
2023/08/26 11:46:02;;;;;;;;;;;23.70;99.90;;;;;;7338860;19;108360;-73
2023/08/26 11:48:29;;;;;;;;;;;23.90;99.90;;;;;;7332570;19;109673;-72
2023/08/26 11:50:59;;;;;;;;;;;24.10;99.90;;;;;;7341284;19;109417;-74
2023/08/26 11:53:26;;;;;;;;;;;24.20;99.90;;;;;;7337225;19;108454;-76
2023/08/26 11:55:54;;;;;;;;;;;24.30;99.90;;;;;;7341233;19;108644;-66
2023/08/26 11:58:21;;;;;;;;;;;24.30;99.90;;;;;;7339864;19;113355;-68
2023/08/26 12:00:49;;;;;;;;;;;24.30;99.90;;;;;;7339588;19;109791;-69
2023/08/26 12:03:17;;;;;;;;;;;24.10;99.90;;;;;;7338201;19;110250;-68
2023/08/26 12:05:46;;;;;;;;;;;24.00;99.90;;;;;;7339769;19;109230;-68
2023/08/26 12:08:14;;;;;;;;;;;23.90;99.90;;;;;;7336828;19;109248;-66
2023/08/26 12:10:45;;;;;;;;;;;23.90;99.90;;;;;;7339315;19;110481;-66
2023/08/26 12:13:12;;;;;;;;;;;24.00;99.90;;;;;;7337144;19;109161;-68
2023/08/26 12:15:40;;;;;;;;;;;24.10;99.90;;;;;;7334241;19;109705;-68
2023/08/26 12:18:09;;;;;;;;;;;24.30;99.90;;;;;;7332838;19;109336;-68
2023/08/26 12:20:37;;;;;;;;;;;24.30;99.90;;;;;;7343347;19;109255;-68
2023/08/26 12:23:05;;;;;;;;;;;24.20;99.90;;;;;;7334512;19;109349;-68
2023/08/26 12:25:37;;;;;;;;;;;24.10;99.90;;;;;;7337745;19;109479;-67
2023/08/26 12:28:08;;;;;;;;;;;24.20;99.90;;;;;;7338349;19;109046;-66
2023/08/26 12:30:39;;;;;;;;;;;24.10;99.90;;;;;;7335240;19;111514;-68
2023/08/26 12:33:06;;;;;;;;;;;24.10;99.90;;;;;;7339225;19;109370;-68
2023/08/26 12:35:41;;;;;;;;;;;24.00;99.90;;;;;;7334475;19;108648;-65
2023/08/26 12:38:08;;;;;;;;;;;24.00;99.90;;;;;;7335629;19;109190;-66
2023/08/26 12:40:37;;;;;;;;;;;24.00;99.90;;;;;;7336481;19;109651;-68
2023/08/26 12:43:04;;;;;;;;;;;24.10;99.90;;;;;;7342516;19;109011;-67
2023/08/26 12:45:32;;;;;;;;;;;24.30;99.90;;;;;;7333205;19;111773;-68
2023/08/26 12:48:00;;;;;;;;;;;24.30;99.90;;;;;;7335819;19;109457;-66
2023/08/26 12:50:27;;;;;;;;;;;24.30;99.90;;;;;;7334456;19;110212;-66
2023/08/26 12:52:54;;;;;;;;;;;24.50;99.90;;;;;;7334072;19;109467;-68
2023/08/26 12:55:22;;;;;;;;;;;24.70;99.90;;;;;;7332544;19;108274;-68
2023/08/26 12:57:49;;;;;;;;;;;24.90;99.90;;;;;;7337539;19;109385;-66
2023/08/26 13:00:17;;;;;;;;;;;25.10;99.90;;;;;;7333719;19;108933;-68
2023/08/26 13:02:44;;;;;;;;;;;25.20;99.90;;;;;;7336733;19;109547;-67
2023/08/26 13:05:12;;;;;;;;;;;25.40;99.90;;;;;;7342282;19;110469;-66
2023/08/26 13:07:39;;;;;;;;;;;25.40;99.90;;;;;;7335408;19;110292;-66
2023/08/26 13:10:07;;;;;;;;;;;25.30;99.90;;;;;;7335211;19;109522;-66
2023/08/26 13:12:35;;;;;;;;;;;25.30;99.90;;;;;;7333959;19;108610;-67
2023/08/26 13:15:02;;;;;;;;;;;25.40;99.90;;;;;;7333988;19;109091;-65
2023/08/26 13:17:29;;;;;;;;;;;25.40;99.90;;;;;;7335955;19;111881;-67
2023/08/26 13:19:58;;;;;;;;;;;25.60;99.90;;;;;;7335524;19;109152;-68
2023/08/26 13:22:26;;;;;;;;;;;25.80;99.90;;;;;;7329709;19;108681;-68
2023/08/26 13:24:53;;;;;;;;;;;25.90;99.90;;;;;;7337654;19;109422;-65
2023/08/26 13:27:20;;;;;;;;;;;25.90;99.90;;;;;;7339340;19;109427;-68
2023/08/26 13:29:47;;;;;;;;;;;26.00;99.90;;;;;;7333640;19;110086;-67
2023/08/26 13:32:15;;;;;;;;;;;25.90;99.90;;;;;;7332693;19;109897;-67
2023/08/26 13:34:42;;;;;;;;;;;25.80;99.90;;;;;;7326463;19;108983;-66
2023/08/26 13:37:09;;;;;;;;;;;25.70;99.90;;;;;;7327346;19;110517;-67
2023/08/26 13:39:36;;;;;;;;;;;25.70;99.90;;;;;;7332699;19;109469;-65
2023/08/26 13:42:03;;;;;;;;;;;25.70;99.90;;;;;;7331533;19;108616;-66
2023/08/26 13:44:30;;;;;;;;;;;25.80;99.90;;;;;;7333445;19;110070;-66
2023/08/26 13:46:57;;;;;;;;;;;25.90;99.90;;;;;;7338983;19;108869;-66
2023/08/26 13:49:25;;;;;;;;;;;26.00;99.90;;;;;;7334692;19;109154;-66
2023/08/26 13:51:52;;;;;;;;;;;26.10;99.90;;;;;;7331274;19;108798;-66
2023/08/26 13:54:20;;;;;;;;;;;26.30;99.90;;;;;;7329732;19;109464;-66
2023/08/26 13:56:47;;;;;;;;;;;26.20;99.90;;;;;;7327110;19;109416;-66
2023/08/26 13:59:14;;;;;;;;;;;26.10;99.90;;;;;;7333682;19;108880;-66
2023/08/26 14:01:41;;;;;;;;;;;26.10;99.90;;;;;;7332917;19;108773;-66
2023/08/26 14:04:08;;;;;;;;;;;26.00;99.90;;;;;;7327492;19;109654;-66
2023/08/26 14:06:35;;;;;;;;;;;25.80;99.90;;;;;;7334064;19;111659;-65
2023/08/26 14:09:02;;;;;;;;;;;25.70;99.90;;;;;;7336517;19;109728;-66
2023/08/26 14:11:29;;;;;;;;;;;25.50;99.90;;;;;;7334160;19;109615;-66